Time;durP1;ratioP1;P1;durP2;ratioP2;P2;SDS_P1;SDS_P2;PMS_P1;PMS_P2;Temp;Humidity;BMP_temperature;BMP_pressure;BME280_temperature;BME280_humidity;BME280_pressure;Samples;Min_cycle;Max_cycle;Signal;HPM_P1;HPM_P2
2022/09/21 00:04:22;;;;;;;1.23;1.00;;;;;;;19.71;58.81;97486.19;10318273;28;20060;-62
2022/09/21 00:09:41;;;;;;;1.40;1.08;;;;;;;19.69;58.82;97491.09;10319016;28;20105;-63
2022/09/21 00:15:01;;;;;;;0.98;0.90;;;;;;;19.68;58.71;97489.50;10315588;28;20051;-63
2022/09/21 00:20:20;;;;;;;0.98;0.85;;;;;;;19.68;58.83;97489.50;10312687;28;20049;-64
2022/09/21 00:25:40;;;;;;;1.10;1.00;;;;;;;19.66;58.82;97483.59;10296320;28;20055;-62
2022/09/21 00:31:04;;;;;;;0.75;0.75;;;;;;;19.67;58.77;97493.31;10320106;28;20051;-61
2022/09/21 00:36:24;;;;;;;1.50;1.05;;;;;;;19.65;58.69;97496.31;10299210;28;20094;-61
2022/09/21 00:41:44;;;;;;;1.40;1.20;;;;;;;19.66;58.82;97494.41;10310979;28;20105;-61
2022/09/21 00:47:09;;;;;;;0.80;0.80;;;;;;;19.64;58.72;97492.03;10298362;28;20054;-63
2022/09/21 00:52:31;;;;;;;1.08;0.88;;;;;;;19.65;58.76;97498.25;10302035;28;20054;-62
2022/09/21 00:57:54;;;;;;;1.40;1.00;;;;;;;19.63;58.87;97492.34;10296753;28;20422;-61
2022/09/21 01:03:13;;;;;;;0.98;0.90;;;;;;;19.63;58.88;97492.34;10307148;28;20054;-63
2022/09/21 01:08:33;;;;;;;0.95;0.85;;;;;;;19.62;58.85;97502.38;10309561;28;20051;-63
2022/09/21 01:13:55;;;;;;;1.15;1.00;;;;;;;19.62;58.88;97498.84;10294221;28;20063;-64
2022/09/21 01:19:38;;;;;;;1.40;0.90;;;;;;;19.62;58.92;97498.84;10291957;28;20059;-63
2022/09/21 01:25:23;;;;;;;1.00;0.90;;;;;;;19.60;58.80;97504.56;10320669;28;20069;-63
2022/09/21 01:30:42;;;;;;;0.88;0.88;;;;;;;19.60;58.76;97509.16;10310155;28;20062;-63
2022/09/21 01:36:06;;;;;;;0.88;0.88;;;;;;;19.60;58.84;97511.88;10297233;28;20062;-63
2022/09/21 01:41:27;;;;;;;0.80;0.80;;;;;;;19.59;58.84;97513.00;10300400;28;20051;-63
2022/09/21 01:46:47;;;;;;;0.95;0.88;;;;;;;19.57;58.75;97507.88;10304893;28;20051;-62
2022/09/21 01:52:11;;;;;;;0.82;0.82;;;;;;;19.58;58.87;97505.97;10299288;28;20081;-62
2022/09/21 01:57:39;;;;;;;0.70;0.70;;;;;;;19.56;58.85;97509.78;10300711;28;20051;-63
2022/09/21 02:03:03;;;;;;;0.95;0.95;;;;;;;19.55;58.82;97505.47;10309047;28;20674;-64
2022/09/21 02:08:25;;;;;;;0.77;0.70;;;;;;;19.56;58.72;97501.69;10316765;28;20055;-63
2022/09/21 02:13:47;;;;;;;1.02;0.93;;;;;;;19.55;58.86;97499.28;10301814;28;20051;-63
2022/09/21 02:19:38;;;;;;;0.95;0.95;;;;;;;19.53;58.85;97505.00;10302480;28;20513;-63
2022/09/21 02:25:14;;;;;;;0.80;0.80;;;;;;;19.53;58.84;97502.28;10284206;28;20113;-63
2022/09/21 02:30:35;;;;;;;0.85;0.70;;;;;;;19.52;58.86;97506.09;10309750;28;20061;-58
2022/09/21 02:36:03;;;;;;;0.90;0.90;;;;;;;19.53;58.86;97513.09;10297842;28;20051;-62
2022/09/21 02:41:35;;;;;;;0.80;0.80;;;;;;;19.51;58.82;97509.13;10293588;28;20054;-63
2022/09/21 02:46:58;;;;;;;0.80;0.80;;;;;;;19.50;58.93;97508.31;10297076;28;20047;-63
2022/09/21 02:52:18;;;;;;;0.80;0.70;;;;;;;19.51;58.91;97522.63;10312803;28;20050;-62
2022/09/21 02:57:38;;;;;;;0.80;0.70;;;;;;;19.50;58.77;97527.25;10296687;28;20101;-63
2022/09/21 03:02:57;;;;;;;0.82;0.80;;;;;;;19.50;58.90;97521.00;10320311;28;20039;-63
2022/09/21 03:08:17;;;;;;;0.70;0.70;;;;;;;19.50;58.90;97521.00;10309006;28;20411;-63
2022/09/21 03:13:36;;;;;;;0.93;0.80;;;;;;;19.50;58.90;97521.00;10295348;28;20067;-62
2022/09/21 03:18:55;;;;;;;0.80;0.80;;;;;;;19.50;58.90;97521.00;10296003;28;20057;-62
2022/09/21 03:24:44;;;;;;;0.73;0.73;;;;;;;-146.19;100.00;65364.44;10296196;28;20133;-63
2022/09/21 03:29:54;;;;;;;0.63;0.63;;;;;;;-146.19;100.00;65364.44;10295502;28;20074;-64
2022/09/21 03:35:13;;;;;;;0.70;0.70;;;;;;;-146.19;100.00;65364.44;10294784;28;20581;-63
2022/09/21 03:40:33;;;;;;;0.70;0.70;;;;;;;-146.19;100.00;65364.44;10300686;28;20105;-64
2022/09/21 03:45:53;;;;;;;0.75;0.75;;;;;;;-146.19;100.00;65364.44;10295015;28;20051;-63
2022/09/21 03:51:12;;;;;;;0.93;0.70;;;;;;;-146.19;100.00;65364.44;10297385;28;20059;-64
2022/09/21 03:56:31;;;;;;;0.75;0.75;;;;;;;-146.19;100.00;65364.44;10293842;28;20422;-63
2022/09/21 04:01:50;;;;;;;0.70;0.70;;;;;;;-146.19;100.00;65364.44;10320325;28;20038;-62
2022/09/21 04:07:09;;;;;;;0.77;0.77;;;;;;;-146.19;100.00;65364.44;10297020;28;20092;-63
2022/09/21 04:12:29;;;;;;;2.15;1.60;;;;;;;-146.19;100.00;65364.44;10299092;28;20058;-63
2022/09/21 04:17:52;;;;;;;0.70;0.70;;;;;;;-146.19;100.00;65364.44;10293623;28;20047;-63
2022/09/21 04:23:11;;;;;;;0.70;0.70;;;;;;;-146.19;100.00;65364.44;10320411;28;20104;-63
2022/09/21 04:28:31;;;;;;;1.00;0.88;;;;;;;-146.19;100.00;65364.44;10306969;28;20051;-63
2022/09/21 04:33:52;;;;;;;0.93;0.70;;;;;;;-146.19;100.00;65364.44;10285749;28;20577;-63
2022/09/21 04:39:11;;;;;;;1.25;0.80;;;;;;;-146.19;100.00;65364.44;10298653;28;20055;-63
2022/09/21 04:44:30;;;;;;;0.70;0.70;;;;;;;-146.19;100.00;65364.44;10293623;28;20407;-64
2022/09/21 04:49:51;;;;;;;1.35;1.00;;;;;;;-146.19;100.00;65364.44;10304928;28;20058;-61
2022/09/21 04:55:11;;;;;;;1.58;0.90;;;;;;;-146.19;100.00;65364.44;10279610;28;20054;-63
2022/09/21 05:00:30;;;;;;;2.30;0.70;;;;;;;-146.19;100.00;65364.44;10297445;28;20057;-64
2022/09/21 05:05:52;;;;;;;1.25;0.80;;;;;;;-146.19;100.00;65364.44;10309794;28;20047;-63
2022/09/21 05:11:21;;;;;;;1.20;0.98;;;;;;;-146.19;100.00;65364.44;10305834;28;20067;-64
2022/09/21 05:16:41;;;;;;;8.45;2.65;;;;;;;-146.19;100.00;65364.44;10299429;28;20402;-64
2022/09/21 05:22:01;;;;;;;6.97;2.10;;;;;;;-146.19;100.00;65364.44;10305254;28;20062;-63
2022/09/21 05:27:20;;;;;;;7.32;2.17;;;;;;;-146.19;100.00;65364.44;10297567;28;20446;-64
2022/09/21 05:33:09;;;;;;;4.85;1.73;;;;;;;-146.19;100.00;65364.44;10310421;28;20058;-63
2022/09/21 05:38:28;;;;;;;8.73;2.05;;;;;;;-146.19;100.00;65364.44;10306909;28;20376;-64
2022/09/21 05:43:48;;;;;;;3.80;1.73;;;;;;;-146.19;100.00;65364.44;10302817;28;20402;-64
2022/09/21 05:49:18;;;;;;;5.97;1.88;;;;;;;-146.19;100.00;65364.44;10294329;28;20055;-64
2022/09/21 05:54:40;;;;;;;3.70;1.80;;;;;;;-146.19;100.00;65364.44;10310059;28;20077;-62
2022/09/21 06:00:13;;;;;;;8.02;1.85;;;;;;;-146.19;100.00;65364.44;10294057;28;20085;-64
2022/09/21 06:05:33;;;;;;;5.15;1.77;;;;;;;-146.19;100.00;65364.44;10292714;28;20047;-64
2022/09/21 06:10:53;;;;;;;4.45;1.77;;;;;;;-146.19;100.00;65364.44;10296364;28;20120;-63
2022/09/21 06:16:13;;;;;;;3.33;1.58;;;;;;;-146.19;100.00;65364.44;10298145;28;20062;-64
2022/09/21 06:21:33;;;;;;;3.67;1.50;;;;;;;-146.19;100.00;65364.44;10310851;28;20387;-64
2022/09/21 06:26:52;;;;;;;3.80;1.40;;;;;;;-146.19;100.00;65364.44;10287710;28;20526;-63
2022/09/21 06:32:11;;;;;;;4.43;1.60;;;;;;;-146.19;100.00;65364.44;10321456;28;20049;-64
2022/09/21 06:37:31;;;;;;;4.93;1.90;;;;;;;-146.19;100.00;65364.44;10296892;28;20051;-64
2022/09/21 06:42:54;;;;;;;4.05;1.58;;;;;;;-146.19;100.00;65364.44;10299092;28;20065;-64
2022/09/21 06:48:14;;;;;;;4.75;1.60;;;;;;;-146.19;100.00;65364.44;10309012;28;20050;-64
2022/09/21 06:53:33;;;;;;;3.35;1.67;;;;;;;-146.19;100.00;65364.44;10310752;28;20393;-63
2022/09/21 06:58:53;;;;;;;5.28;1.55;;;;;;;-146.19;100.00;65364.44;10299967;28;20062;-64
2022/09/21 07:04:13;;;;;;;2.45;1.50;;;;;;;-146.19;100.00;65364.44;10296537;28;20055;-64
2022/09/21 07:09:32;;;;;;;2.70;1.65;;;;;;;-146.19;100.00;65364.44;10296330;28;20477;-63
2022/09/21 07:14:51;;;;;;;2.63;1.50;;;;;;;-146.19;100.00;65364.44;10294474;28;20455;-64
2022/09/21 07:20:11;;;;;;;2.50;1.45;;;;;;;-146.19;100.00;65364.44;10308999;28;20050;-64
2022/09/21 07:25:30;;;;;;;5.20;1.60;;;;;;;-146.19;100.00;65364.44;10303356;28;20047;-64
2022/09/21 07:30:49;;;;;;;2.60;1.48;;;;;;;-146.19;100.00;65364.44;10295618;28;20087;-64
2022/09/21 07:36:10;;;;;;;2.97;1.48;;;;;;;-146.19;100.00;65364.44;10295398;28;20081;-63
2022/09/21 07:41:29;;;;;;;2.63;1.48;;;;;;;-146.19;100.00;65364.44;10295793;28;20047;-63
2022/09/21 07:46:49;;;;;;;3.75;1.52;;;;;;;-146.19;100.00;65364.44;10288069;28;20112;-63
2022/09/21 07:52:08;;;;;;;2.45;1.30;;;;;;;-146.19;100.00;65364.44;10294216;28;20058;-63
2022/09/21 08:03:06;;;;;;;2.90;1.60;;;;;;;-146.19;100.00;65364.44;10296739;28;20061;-64
2022/09/21 08:08:25;;;;;;;2.72;1.50;;;;;;;-146.19;100.00;65364.44;10294194;28;20090;-63
2022/09/21 08:13:44;;;;;;;4.13;1.52;;;;;;;-146.19;100.00;65364.44;10292949;28;20062;-64
2022/09/21 08:19:04;;;;;;;2.88;1.58;;;;;;;-146.19;100.00;65364.44;10309524;28;20046;-63
2022/09/21 08:24:25;;;;;;;3.47;1.80;;;;;;;-146.19;100.00;65364.44;10293447;28;20047;-64
2022/09/21 08:29:45;;;;;;;2.78;1.45;;;;;;;-146.19;100.00;65364.44;10293571;28;20061;-64
2022/09/21 08:35:05;;;;;;;4.28;1.83;;;;;;;-146.19;100.00;65364.44;10318481;28;20558;-64
2022/09/21 08:40:25;;;;;;;7.63;2.25;;;;;;;-146.19;100.00;65364.44;10292400;28;20092;-64
2022/09/21 08:45:45;;;;;;;6.65;2.45;;;;;;;-146.19;100.00;65364.44;10294327;28;20073;-63
2022/09/21 08:51:08;;;;;;;6.93;2.65;;;;;;;-146.19;100.00;65364.44;10297842;28;20105;-64
2022/09/21 08:56:27;;;;;;;7.97;2.58;;;;;;;-146.19;100.00;65364.44;10308828;28;20042;-64
2022/09/21 09:01:53;;;;;;;6.50;2.40;;;;;;;-146.19;100.00;65364.44;10305618;28;20403;-63
2022/09/21 09:07:38;;;;;;;7.97;2.70;;;;;;;-146.19;100.00;65364.44;10305139;28;20054;-63
2022/09/21 09:13:03;;;;;;;9.07;2.83;;;;;;;-146.19;100.00;65364.44;10285020;28;20063;-63
2022/09/21 09:18:45;;;;;;;8.32;2.92;;;;;;;-146.19;100.00;65364.44;10299809;28;20059;-64
2022/09/21 09:24:15;;;;;;;7.93;3.33;;;;;;;-146.19;100.00;65364.44;10279806;28;20108;-63
2022/09/21 09:29:54;;;;;;;7.00;2.88;;;;;;;-146.19;100.00;65364.44;10291529;28;20059;-63
2022/09/21 09:35:24;;;;;;;8.18;3.00;;;;;;;-146.19;100.00;65364.44;10309273;28;20047;-64
2022/09/21 09:41:12;;;;;;;6.13;2.50;;;;;;;-146.19;100.00;65364.44;10294726;28;20054;-64
2022/09/21 09:46:56;;;;;;;10.27;2.80;;;;;;;-146.19;100.00;65364.44;10290958;28;20057;-63
2022/09/21 09:52:16;;;;;;;6.60;3.03;;;;;;;-146.19;100.00;65364.44;10301351;28;20050;-63
2022/09/21 09:57:35;;;;;;;7.38;3.50;;;;;;;-146.19;100.00;65364.44;10311932;28;20089;-63
2022/09/21 10:02:57;;;;;;;7.72;2.95;;;;;;;-146.19;100.00;65364.44;10297937;28;20082;-64
2022/09/21 10:08:42;;;;;;;54.85;13.05;;;;;;;-146.19;100.00;65364.44;10300342;28;20065;-62
2022/09/21 10:14:09;;;;;;;19.33;6.53;;;;;;;-146.19;100.00;65364.44;10306991;28;20518;-61
2022/09/21 10:19:29;;;;;;;23.88;7.20;;;;;;;-146.19;100.00;65364.44;10336150;28;20123;-61
2022/09/21 10:24:50;;;;;;;17.88;6.13;;;;;;;-146.19;100.00;65364.44;10309951;28;20053;-63
2022/09/21 10:30:42;;;;;;;14.07;4.85;;;;;;;-146.19;100.00;65364.44;10297832;28;20058;-62
2022/09/21 10:36:01;;;;;;;16.13;4.78;;;;;;;-146.19;100.00;65364.44;10312259;28;20069;-64
2022/09/21 10:41:21;;;;;;;12.63;3.80;;;;;;;-146.19;100.00;65364.44;10298702;28;20055;-64
2022/09/21 10:46:40;;;;;;;12.90;4.10;;;;;;;-146.19;100.00;65364.44;10289859;28;20502;-63
2022/09/21 10:52:00;;;;;;;13.45;3.90;;;;;;;-146.19;100.00;65364.44;10297258;28;20054;-63
2022/09/21 10:57:22;;;;;;;9.85;3.33;;;;;;;-146.19;100.00;65364.44;10296689;28;20053;-64
2022/09/21 11:02:42;;;;;;;10.23;3.65;;;;;;;-146.19;100.00;65364.44;10298002;28;20054;-64
2022/09/21 11:08:05;;;;;;;11.98;3.72;;;;;;;-146.19;100.00;65364.44;10309436;28;20047;-63
2022/09/21 11:13:29;;;;;;;12.07;3.53;;;;;;;-146.19;100.00;65364.44;10310621;28;20058;-64
2022/09/21 11:18:53;;;;;;;9.55;3.40;;;;;;;-146.19;100.00;65364.44;10309685;28;20556;-62
2022/09/21 11:24:37;;;;;;;8.50;3.40;;;;;;;-146.19;100.00;65364.44;10331878;28;20064;-64
2022/09/21 11:30:06;;;;;;;6.90;2.80;;;;;;;-146.19;100.00;65364.44;10298838;28;20050;-62
2022/09/21 11:35:42;;;;;;;8.13;3.25;;;;;;;-146.19;100.00;65364.44;10319079;28;20046;-64
2022/09/21 11:41:20;;;;;;;5.78;2.95;;;;;;;-146.19;100.00;65364.44;10277751;28;20574;-62
2022/09/21 11:46:48;;;;;;;8.25;3.30;;;;;;;-146.19;100.00;65364.44;10305016;28;20057;-64
2022/09/21 11:52:23;;;;;;;8.05;3.17;;;;;;;-146.19;100.00;65364.44;10296135;28;20054;-64
2022/09/21 11:57:51;;;;;;;8.18;3.13;;;;;;;-146.19;100.00;65364.44;10307821;28;20050;-64
2022/09/21 12:03:27;;;;;;;7.68;3.22;;;;;;;-146.19;100.00;65364.44;10322611;28;20058;-62
2022/09/21 12:09:33;;;;;;;9.00;3.13;;;;;;;-146.19;100.00;65364.44;10314705;28;20043;-64
2022/09/21 12:15:10;;;;;;;7.97;2.90;;;;;;;-146.19;100.00;65364.44;10285694;28;20059;-64
2022/09/21 12:20:46;;;;;;;7.72;2.90;;;;;;;-146.19;100.00;65364.44;10292074;28;20132;-63
2022/09/21 12:26:07;;;;;;;7.18;2.75;;;;;;;-146.19;100.00;65364.44;10301117;28;20050;-64
2022/09/21 12:31:37;;;;;;;5.68;2.88;;;;;;;-146.19;100.00;65364.44;10320050;28;20077;-64
2022/09/21 12:37:08;;;;;;;4.55;2.30;;;;;;;-146.19;100.00;65364.44;10311193;28;20050;-63
2022/09/21 12:42:53;;;;;;;6.13;2.80;;;;;;;-146.19;100.00;65364.44;10331705;28;20054;-64
2022/09/21 12:48:27;;;;;;;5.35;2.42;;;;;;;-146.19;100.00;65364.44;10292036;28;20059;-63
2022/09/21 12:53:48;;;;;;;6.43;2.67;;;;;;;-146.19;100.00;65364.44;10293014;28;20065;-63
2022/09/21 12:59:08;;;;;;;4.07;2.38;;;;;;;-146.19;100.00;65364.44;10318563;28;20514;-64
2022/09/21 13:04:34;;;;;;;6.25;2.50;;;;;;;-146.19;100.00;65364.44;10292132;28;20081;-64
2022/09/21 13:09:53;;;;;;;5.63;2.40;;;;;;;-146.19;100.00;65364.44;10283195;28;20055;-64
2022/09/21 13:15:24;;;;;;;4.82;2.33;;;;;;;-146.19;100.00;65364.44;10291120;28;20059;-63
2022/09/21 13:20:45;;;;;;;5.25;2.13;;;;;;;-146.19;100.00;65364.44;10291422;28;20479;-64
2022/09/21 13:26:06;;;;;;;4.63;2.10;;;;;;;-146.19;100.00;65364.44;10328855;28;20097;-63
2022/09/21 13:32:12;;;;;;;4.13;2.25;;;;;;;-146.19;100.00;65364.44;10300612;28;20066;-63
2022/09/21 13:37:32;;;;;;;4.50;2.05;;;;;;;-146.19;100.00;65364.44;10301340;28;20513;-63
2022/09/21 13:42:51;;;;;;;4.80;2.10;;;;;;;-146.19;100.00;65364.44;10302881;28;20055;-63
2022/09/21 13:48:18;;;;;;;2.60;1.83;;;;;;;-146.19;100.00;65364.44;10312886;28;20490;-64
2022/09/21 13:53:39;;;;;;;4.10;1.98;;;;;;;-146.19;100.00;65364.44;10313627;28;20105;-63
2022/09/21 13:58:59;;;;;;;4.90;2.03;;;;;;;-146.19;100.00;65364.44;10305808;28;20047;-63
2022/09/21 14:04:31;;;;;;;3.63;2.00;;;;;;;-146.19;100.00;65364.44;10297093;28;20090;-63
2022/09/21 14:10:16;;;;;;;4.60;2.05;;;;;;;-146.19;100.00;65364.44;10298738;28;20050;-63
2022/09/21 14:15:38;;;;;;;4.63;1.95;;;;;;;-146.19;100.00;65364.44;10297529;28;20059;-63
2022/09/21 14:21:16;;;;;;;5.20;1.90;;;;;;;-146.19;100.00;65364.44;10316927;28;20050;-62
2022/09/21 14:26:38;;;;;;;3.70;1.95;;;;;;;-146.19;100.00;65364.44;10336898;28;20502;-63
2022/09/21 14:32:00;;;;;;;3.05;1.92;;;;;;;-146.19;100.00;65364.44;10291906;28;20503;-62
2022/09/21 14:37:39;;;;;;;3.38;1.80;;;;;;;-146.19;100.00;65364.44;10309568;28;20050;-63
2022/09/21 14:43:01;;;;;;;6.10;2.45;;;;;;;-146.19;100.00;65364.44;10299409;28;20061;-63
2022/09/21 14:48:25;;;;;;;3.17;1.77;;;;;;;-146.19;100.00;65364.44;10314130;28;20093;-63
2022/09/21 14:54:09;;;;;;;2.70;1.60;;;;;;;-146.19;100.00;65364.44;10297921;28;20526;-63
2022/09/21 14:59:41;;;;;;;2.47;1.63;;;;;;;-146.19;100.00;65364.44;10314707;28;20077;-62
2022/09/21 15:05:03;;;;;;;3.63;1.80;;;;;;;-146.19;100.00;65364.44;10296718;28;20051;-63
2022/09/21 15:16:21;;;;;;;4.70;1.77;;;;;;;-146.19;100.00;65364.44;10307021;28;20112;-63
2022/09/21 15:21:46;;;;;;;4.33;1.73;;;;;;;-146.19;100.00;65364.44;10298743;28;20050;-67
2022/09/21 15:27:09;;;;;;;3.92;1.70;;;;;;;-146.19;100.00;65364.44;10300870;28;20446;-65
2022/09/21 15:32:41;;;;;;;4.32;1.80;;;;;;;-146.19;100.00;65364.44;10307231;28;20058;-64
2022/09/21 15:38:01;;;;;;;3.55;1.75;;;;;;;-146.19;100.00;65364.44;10295096;28;20055;-62
2022/09/21 15:43:20;;;;;;;4.38;1.65;;;;;;;-146.19;100.00;65364.44;10304778;28;20116;-64
2022/09/21 15:48:41;;;;;;;7.53;1.42;;;;;;;-146.19;100.00;65364.44;10482546;23;20536;-53
2022/09/21 15:54:07;;;;;;;5.47;1.63;;;;;;;-146.19;100.00;65364.44;10306189;28;20062;-53
2022/09/21 15:59:29;;;;;;;3.97;1.70;;;;;;;-146.19;100.00;65364.44;10283354;28;20061;-52
2022/09/21 16:04:49;;;;;;;4.15;1.40;;;;;;;-146.19;100.00;65364.44;10294605;28;20405;-55
2022/09/21 16:10:30;;;;;;;3.85;1.33;;;;;;;-146.19;100.00;65364.44;10279877;28;20055;-54
2022/09/21 16:16:02;;;;;;;2.53;1.27;;;;;;;-146.19;100.00;65364.44;10266451;28;20162;-54
2022/09/21 16:21:32;;;;;;;2.50;1.50;;;;;;;-146.19;100.00;65364.44;10259537;28;20451;-54
2022/09/21 16:26:59;;;;;;;2.38;1.35;;;;;;;-146.19;100.00;65364.44;10249497;28;20050;-54
2022/09/21 16:32:27;;;;;;;2.42;1.30;;;;;;;-146.19;100.00;65364.44;10262474;28;20062;-52
2022/09/21 16:37:46;;;;;;;5.70;1.17;;;;;;;-146.19;100.00;65364.44;10278799;28;20050;-53
2022/09/21 16:43:09;;;;;;;3.67;1.40;;;;;;;-146.19;100.00;65364.44;10290746;28;20171;-52
2022/09/21 16:48:29;;;;;;;2.80;1.08;;;;;;;-146.19;100.00;65364.44;10292843;28;20058;-53
2022/09/21 16:53:48;;;;;;;2.80;1.10;;;;;;;-146.19;100.00;65364.44;10303703;28;20046;-54
2022/09/21 16:59:22;;;;;;;2.22;1.20;;;;;;;-146.19;100.00;65364.44;10283541;28;20055;-53
2022/09/21 17:04:42;;;;;;;2.97;1.25;;;;;;;-146.19;100.00;65364.44;10304890;28;20038;-53
2022/09/21 17:10:10;;;;;;;2.38;1.20;;;;;;;-146.19;100.00;65364.44;10291860;28;20450;-54
2022/09/21 17:15:30;;;;;;;2.87;1.10;;;;;;;-146.19;100.00;65364.44;10289336;28;20513;-53
2022/09/21 17:20:50;;;;;;;4.45;1.20;;;;;;;-146.19;100.00;65364.44;10282188;28;20121;-54
2022/09/21 17:26:16;;;;;;;4.90;1.35;;;;;;;-146.19;100.00;65364.44;10294860;28;20418;-55
2022/09/21 17:31:37;;;;;;;3.30;1.20;;;;;;;-146.19;100.00;65364.44;10322220;28;20436;-54
2022/09/21 17:36:56;;;;;;;7.15;1.23;;;;;;;-146.19;100.00;65364.44;10297757;28;20051;-53
2022/09/21 17:42:21;;;;;;;8.27;1.27;;;;;;;-146.19;100.00;65364.44;10287409;28;20413;-54
2022/09/21 17:47:41;;;;;;;11.63;1.50;;;;;;;-146.19;100.00;65364.44;10293449;28;20055;-51
2022/09/21 17:58:56;;;;;;;5.63;1.30;;;;;;;-146.19;100.00;65364.44;10292987;28;20054;-53
2022/09/21 18:04:16;;;;;;;13.65;1.20;;;;;;;-146.19;100.00;65364.44;10294878;28;20058;-51
2022/09/21 18:09:36;;;;;;;5.80;1.20;;;;;;;-146.19;100.00;65364.44;10295382;28;20059;-54
2022/09/21 18:15:04;;;;;;;8.02;1.40;;;;;;;-146.19;100.00;65364.44;10296798;28;20051;-55
2022/09/21 18:21:02;;;;;;;6.32;1.40;;;;;;;-146.19;100.00;65364.44;10315771;28;20038;-55
2022/09/21 18:26:22;;;;;;;5.47;1.50;;;;;;;-146.19;100.00;65364.44;10292101;28;20138;-53
2022/09/21 18:31:54;;;;;;;7.28;1.15;;;;;;;-146.19;100.00;65364.44;10298001;28;20054;-53
2022/09/21 18:37:40;;;;;;;3.00;1.20;;;;;;;-146.19;100.00;65364.44;10315615;28;20053;-53
2022/09/21 18:43:11;;;;;;;4.40;1.30;;;;;;;-146.19;100.00;65364.44;10291226;28;20066;-54
2022/09/21 18:48:51;;;;;;;4.88;1.38;;;;;;;-146.19;100.00;65364.44;10264477;28;20097;-54
2022/09/21 18:54:19;;;;;;;5.40;1.50;;;;;;;-146.19;100.00;65364.44;10253722;28;20142;-56
2022/09/21 18:59:39;;;;;;;5.15;1.10;;;;;;;-146.19;100.00;65364.44;10257059;28;20059;-56
2022/09/21 19:04:59;;;;;;;3.80;1.35;;;;;;;-146.19;100.00;65364.44;10250321;28;20051;-57
2022/09/21 19:10:24;;;;;;;3.30;1.00;;;;;;;-146.19;100.00;65364.44;10281143;28;20051;-59
2022/09/21 19:16:04;;;;;;;3.35;1.20;;;;;;;-146.19;100.00;65364.44;10292373;28;20065;-54
2022/09/21 19:21:28;;;;;;;4.75;1.27;;;;;;;-146.19;100.00;65364.44;10266026;28;20039;-54
2022/09/21 19:27:10;;;;;;;3.58;1.08;;;;;;;-146.19;100.00;65364.44;10255850;28;20061;-54
2022/09/21 19:32:32;;;;;;;2.75;0.95;;;;;;;-146.19;100.00;65364.44;10256238;28;20058;-52
2022/09/21 19:37:54;;;;;;;2.60;1.20;;;;;;;-146.19;100.00;65364.44;10282486;28;20061;-54
2022/09/21 19:43:29;;;;;;;1.75;1.25;;;;;;;-146.19;100.00;65364.44;10282940;28;20047;-54
2022/09/21 19:48:53;;;;;;;3.28;1.42;;;;;;;-146.19;100.00;65364.44;10287107;28;20066;-53
2022/09/21 19:59:53;;;;;;;1.45;1.10;;;;;;;-146.19;100.00;65364.44;10297414;28;20054;-54
2022/09/21 20:05:22;;;;;;;1.75;0.85;;;;;;;-146.19;100.00;65364.44;10311565;28;20111;-54
2022/09/21 20:10:53;;;;;;;1.25;0.90;;;;;;;-146.19;100.00;65364.44;10297946;28;20069;-54
2022/09/21 20:16:55;;;;;;;2.22;1.20;;;;;;;-146.19;100.00;65364.44;10312310;28;20046;-54
2022/09/21 20:22:16;;;;;;;1.75;0.95;;;;;;;-146.19;100.00;65364.44;10145193;29;20063;-54
2022/09/21 20:27:44;;;;;;;2.35;1.08;;;;;;;-146.19;100.00;65364.44;10274862;28;20051;-53
2022/09/21 20:33:06;;;;;;;2.63;1.15;;;;;;;-146.19;100.00;65364.44;10291632;28;20046;-55
2022/09/21 20:38:25;;;;;;;2.63;1.25;;;;;;;-146.19;100.00;65364.44;10291200;28;20046;-55
2022/09/21 20:43:45;;;;;;;4.53;1.40;;;;;;;-146.19;100.00;65364.44;10303465;28;20576;-55
2022/09/21 20:49:07;;;;;;;1.65;1.23;;;;;;;-146.19;100.00;65364.44;10298406;28;20057;-54
2022/09/21 20:54:26;;;;;;;2.13;1.20;;;;;;;-146.19;100.00;65364.44;10292519;28;20077;-54
2022/09/21 20:59:46;;;;;;;2.65;1.40;;;;;;;-146.19;100.00;65364.44;10305363;28;20567;-54
2022/09/21 21:05:06;;;;;;;1.55;1.25;;;;;;;-146.19;100.00;65364.44;10291725;28;20504;-54
2022/09/21 21:10:26;;;;;;;2.17;1.10;;;;;;;-146.19;100.00;65364.44;10291496;28;20514;-54
2022/09/21 21:15:51;;;;;;;2.78;1.30;;;;;;;-146.19;100.00;65364.44;10307314;28;20054;-54
2022/09/21 21:21:10;;;;;;;2.78;1.30;;;;;;;-146.19;100.00;65364.44;10300201;28;20619;-54
2022/09/21 21:26:30;;;;;;;2.83;1.20;;;;;;;-146.19;100.00;65364.44;10281115;28;20440;-54
2022/09/21 21:31:50;;;;;;;1.83;1.23;;;;;;;-146.19;100.00;65364.44;10308543;28;20565;-54
2022/09/21 21:37:11;;;;;;;1.38;1.15;;;;;;;-146.19;100.00;65364.44;10317558;28;20054;-54
2022/09/21 21:42:30;;;;;;;1.95;1.35;;;;;;;-146.19;100.00;65364.44;10301340;28;20054;-53
2022/09/21 21:47:50;;;;;;;2.13;1.17;;;;;;;-146.19;100.00;65364.44;10290368;28;20078;-54
2022/09/21 21:53:09;;;;;;;1.10;1.00;;;;;;;-146.19;100.00;65364.44;10299610;28;20081;-53
2022/09/21 21:58:28;;;;;;;2.15;1.20;;;;;;;-146.19;100.00;65364.44;10300949;28;20062;-54
2022/09/21 22:03:53;;;;;;;1.95;1.10;;;;;;;-146.19;100.00;65364.44;10317783;28;20038;-54
2022/09/21 22:09:13;;;;;;;2.03;1.20;;;;;;;-146.19;100.00;65364.44;10303563;28;20447;-54
2022/09/21 22:14:32;;;;;;;1.50;1.20;;;;;;;-146.19;100.00;65364.44;10299810;28;20057;-54
2022/09/21 22:19:52;;;;;;;1.25;1.02;;;;;;;-146.19;100.00;65364.44;10333911;28;20058;-54
2022/09/21 22:25:12;;;;;;;1.60;1.10;;;;;;;-146.19;100.00;65364.44;10328277;28;20054;-54
2022/09/21 22:30:32;;;;;;;1.48;1.10;;;;;;;-146.19;100.00;65364.44;10298066;28;20061;-54
2022/09/21 22:35:52;;;;;;;2.03;1.20;;;;;;;-146.19;100.00;65364.44;10311199;28;20054;-54
2022/09/21 22:41:13;;;;;;;1.25;0.90;;;;;;;-146.19;100.00;65364.44;10298971;28;20075;-54
2022/09/21 22:46:33;;;;;;;1.35;1.25;;;;;;;-146.19;100.00;65364.44;10298957;28;20059;-54
2022/09/21 22:51:53;;;;;;;2.65;1.25;;;;;;;-146.19;100.00;65364.44;10310861;28;20125;-54
2022/09/21 22:57:12;;;;;;;1.20;1.10;;;;;;;-146.19;100.00;65364.44;10296722;28;20054;-55
2022/09/21 23:02:33;;;;;;;2.10;1.08;;;;;;;-146.19;100.00;65364.44;10307756;28;20070;-54
2022/09/21 23:07:56;;;;;;;1.55;1.00;;;;;;;-146.19;100.00;65364.44;10314639;28;20046;-54
2022/09/21 23:13:15;;;;;;;1.20;1.00;;;;;;;-146.19;100.00;65364.44;10331520;28;20058;-53
2022/09/21 23:18:36;;;;;;;1.23;1.05;;;;;;;-146.19;100.00;65364.44;10331267;28;20058;-54
2022/09/21 23:23:58;;;;;;;2.47;1.10;;;;;;;-146.19;100.00;65364.44;10325014;28;20046;-54
2022/09/21 23:29:18;;;;;;;2.47;1.10;;;;;;;-146.19;100.00;65364.44;10309728;28;20054;-54
2022/09/21 23:34:37;;;;;;;1.42;1.13;;;;;;;-146.19;100.00;65364.44;10297420;28;20055;-54
2022/09/21 23:39:57;;;;;;;4.90;1.55;;;;;;;-146.19;100.00;65364.44;10299139;28;20065;-54
2022/09/21 23:45:17;;;;;;;1.35;1.20;;;;;;;-146.19;100.00;65364.44;10310772;28;20529;-54
2022/09/21 23:50:36;;;;;;;1.20;1.10;;;;;;;-146.19;100.00;65364.44;10298109;28;20063;-54
2022/09/21 23:55:56;;;;;;;1.55;1.08;;;;;;;-146.19;100.00;65364.44;10297418;28;20050;-54
